createdAt,value
2018-11-11T00:00:18.261Z,22.3
2018-11-11T00:01:09.131Z,22.3
2018-11-11T00:01:59.779Z,22.3
2018-11-11T00:02:48.772Z,22.3
2018-11-11T00:03:39.079Z,22.3
2018-11-11T00:04:28.633Z,22.3
2018-11-11T00:05:18.725Z,22.3
2018-11-11T00:06:08.699Z,22.3
2018-11-11T00:06:59.316Z,22.3
2018-11-11T00:25:07.052Z,22.3
2018-11-11T00:25:58.520Z,22.3
2018-11-11T00:26:47.723Z,22.3
2018-11-11T00:27:38.675Z,22.3
2018-11-11T00:28:29.597Z,22.3
2018-11-11T00:29:19.070Z,22.4
2018-11-11T00:30:07.677Z,22.4
2018-11-11T00:30:58.095Z,22.4
2018-11-11T00:31:48.070Z,22.4
2018-11-11T00:32:37.835Z,22.4
2018-11-11T00:33:28.749Z,22.4
2018-11-11T00:34:18.230Z,22.4
2018-11-11T00:35:08.645Z,22.4
2018-11-11T00:35:58.635Z,22.4
2018-11-11T00:36:48.190Z,22.4
2018-11-11T00:37:39.392Z,22.4
2018-11-11T00:38:28.557Z,22.4
2018-11-11T00:39:19.223Z,22.4
2018-11-11T00:40:08.027Z,22.4
2018-11-11T00:40:58.819Z,22.4
2018-11-11T00:41:49.656Z,22.4
2018-11-11T00:42:39.172Z,22.4
2018-11-11T00:43:29.209Z,22.4
2018-11-11T00:44:18.537Z,22.4
2018-11-11T00:45:08.756Z,22.4
2018-11-11T00:45:59.159Z,22.4
2018-11-11T00:46:48.674Z,22.4
2018-11-11T00:47:39.391Z,22.4
2018-11-11T00:48:29.001Z,22.4
2018-11-11T00:49:18.540Z,22.4
2018-11-11T00:50:09.179Z,22.4
2018-11-11T00:51:00.779Z,22.4
2018-11-11T00:51:50.051Z,22.4
2018-11-11T00:52:39.341Z,22.4
2018-11-11T00:53:29.621Z,22.4
2018-11-11T00:54:19.680Z,22.4
2018-11-11T00:55:09.325Z,22.4
2018-11-11T00:56:00.321Z,22.4
2018-11-11T00:56:50.711Z,22.4
2018-11-11T00:57:39.657Z,22.4
2018-11-11T00:58:30.819Z,22.4
2018-11-11T00:59:20.860Z,22.4
2018-11-11T01:00:10.353Z,22.4
2018-11-11T01:01:00.376Z,22.4
2018-11-11T01:01:50.488Z,22.4
2018-11-11T01:02:40.844Z,22.4
2018-11-11T01:03:30.718Z,22.4
2018-11-11T01:04:20.771Z,22.4
2018-11-11T01:05:11.151Z,22.4
2018-11-11T01:06:00.873Z,22.4
2018-11-11T01:06:50.465Z,22.4
2018-11-11T01:07:40.328Z,22.4
2018-11-11T01:08:31.275Z,22.4
2018-11-11T01:09:21.291Z,22.4
2018-11-11T01:10:11.413Z,22.4
2018-11-11T01:11:01.202Z,22.4
2018-11-11T01:11:51.212Z,22.4
2018-11-11T01:12:41.097Z,22.4
2018-11-11T01:13:30.846Z,22.4
2018-11-11T01:14:20.900Z,22.4
2018-11-11T01:15:10.892Z,22.4
2018-11-11T01:16:01.870Z,22.4
2018-11-11T01:16:51.919Z,22.4
2018-11-11T01:17:41.900Z,22.4
2018-11-11T01:18:32.007Z,22.4
2018-11-11T01:19:22.335Z,22.4
2018-11-11T01:20:12.142Z,22.4
2018-11-11T01:21:02.114Z,22.4
2018-11-11T01:21:52.510Z,22.4
2018-11-11T01:22:42.092Z,22.4
2018-11-11T01:23:31.250Z,22.4
2018-11-11T01:24:21.952Z,22.4
2018-11-11T01:25:11.979Z,22.4
2018-11-11T01:26:02.283Z,22.4
2018-11-11T01:26:52.826Z,22.4
2018-11-11T01:27:41.899Z,22.4
2018-11-11T01:28:32.222Z,22.4
2018-11-11T01:29:21.628Z,22.4
2018-11-11T01:30:12.146Z,22.4
2018-11-11T01:31:02.207Z,22.4
2018-11-11T01:31:51.471Z,22.4
2018-11-11T01:32:42.842Z,22.4
2018-11-11T01:33:32.099Z,22.4
2018-11-11T01:34:22.075Z,22.4
2018-11-11T01:35:11.644Z,22.4
2018-11-11T01:36:03.576Z,22.4
2018-11-11T01:36:52.579Z,22.4
2018-11-11T01:37:43.158Z,22.4
2018-11-11T01:38:32.589Z,22.4
2018-11-11T01:39:22.239Z,22.5
2018-11-11T01:40:13.101Z,22.5
2018-11-11T01:41:03.142Z,22.4
2018-11-11T01:41:53.134Z,22.4
2018-11-11T01:42:43.636Z,22.5
2018-11-11T01:43:32.528Z,22.4
2018-11-11T01:44:23.141Z,22.5
2018-11-11T01:45:12.553Z,22.5
2018-11-11T01:46:02.925Z,22.4
2018-11-11T01:46:53.250Z,22.4
2018-11-11T01:47:42.531Z,22.4
2018-11-11T01:48:33.068Z,22.5
2018-11-11T01:49:23.455Z,22.5
2018-11-11T01:50:13.580Z,22.5
2018-11-11T01:51:03.935Z,22.5
2018-11-11T01:51:53.929Z,22.5
2018-11-11T01:52:43.682Z,22.5
2018-11-11T01:53:33.451Z,22.5
2018-11-11T01:54:23.509Z,22.5
2018-11-11T01:55:14.156Z,22.5
2018-11-11T01:56:02.863Z,22.5
2018-11-11T01:56:53.586Z,22.5
2018-11-11T01:57:43.737Z,22.5
2018-11-11T01:58:33.883Z,22.5
2018-11-11T01:59:23.992Z,22.5
2018-11-11T02:00:12.848Z,22.5
2018-11-11T02:01:04.702Z,22.5
2018-11-11T02:01:53.442Z,22.5
2018-11-11T02:02:44.667Z,22.5
2018-11-11T02:03:33.972Z,22.5
2018-11-11T02:04:25.339Z,22.5
2018-11-11T02:05:14.396Z,22.5
2018-11-11T02:06:04.645Z,22.5
2018-11-11T02:06:54.724Z,22.5
2018-11-11T02:07:44.205Z,22.5
2018-11-11T02:08:35.721Z,22.5
2018-11-11T02:09:24.844Z,22.5
2018-11-11T02:10:14.662Z,22.5
2018-11-11T02:11:04.116Z,22.5
2018-11-11T02:11:55.157Z,22.5
2018-11-11T02:12:45.961Z,22.5
2018-11-11T02:13:35.254Z,22.5
2018-11-11T02:14:25.519Z,22.5
2018-11-11T02:15:15.016Z,22.5
2018-11-11T02:16:05.661Z,22.5
2018-11-11T02:16:55.406Z,22.5
2018-11-11T02:17:45.726Z,22.5
2018-11-11T02:18:35.596Z,22.5
2018-11-11T02:19:25.412Z,22.6
2018-11-11T02:20:15.966Z,22.5
2018-11-11T02:21:05.389Z,22.5
2018-11-11T02:21:56.347Z,22.5
2018-11-11T02:22:46.052Z,22.5
2018-11-11T02:23:37.251Z,22.6
2018-11-11T02:24:26.244Z,22.5
2018-11-11T02:25:15.741Z,22.6
2018-11-11T02:26:06.606Z,22.6
2018-11-11T02:26:57.212Z,22.6
2018-11-11T02:27:46.970Z,22.5
2018-11-11T02:28:35.794Z,22.6
2018-11-11T02:29:25.730Z,22.6
2018-11-11T02:30:16.476Z,22.6
2018-11-11T02:31:06.338Z,22.5
2018-11-11T02:31:56.856Z,22.6
2018-11-11T02:32:46.299Z,22.6
2018-11-11T02:33:36.174Z,22.6
2018-11-11T02:34:26.667Z,22.6
2018-11-11T02:35:17.122Z,22.5
2018-11-11T02:36:06.913Z,22.6
2018-11-11T02:36:56.531Z,22.6
2018-11-11T02:37:48.463Z,22.6
2018-11-11T02:38:36.236Z,22.6
2018-11-11T02:39:27.555Z,22.6
2018-11-11T02:40:17.079Z,22.6
2018-11-11T02:41:07.410Z,22.6
2018-11-11T02:41:57.225Z,22.6
2018-11-11T02:42:46.459Z,22.6
2018-11-11T02:43:38.171Z,22.6
2018-11-11T02:44:28.245Z,22.6
2018-11-11T02:45:17.790Z,22.6
2018-11-11T02:46:07.011Z,22.6
2018-11-11T02:46:57.667Z,22.6
2018-11-11T02:47:47.546Z,22.6
2018-11-11T02:48:38.032Z,22.6
2018-11-11T02:49:27.478Z,22.6
2018-11-11T02:50:17.094Z,22.6
2018-11-11T02:51:08.044Z,22.6
2018-11-11T02:51:57.974Z,22.6
2018-11-11T02:52:47.234Z,22.6
2018-11-11T02:53:37.637Z,22.6
2018-11-11T02:54:27.356Z,22.6
2018-11-11T02:55:18.279Z,22.6
2018-11-11T02:56:08.304Z,22.6
2018-11-11T02:56:58.064Z,22.6
2018-11-11T02:57:47.523Z,22.6
2018-11-11T02:58:38.157Z,22.6
2018-11-11T02:59:27.583Z,22.6
2018-11-11T03:00:18.614Z,22.6
2018-11-11T03:01:08.876Z,22.6
2018-11-11T03:01:58.246Z,22.6
2018-11-11T03:02:48.802Z,22.6
2018-11-11T03:03:39.306Z,22.6
2018-11-11T03:04:29.482Z,22.6
2018-11-11T03:05:19.481Z,22.6
2018-11-11T03:06:09.276Z,22.6
2018-11-11T03:06:59.226Z,22.6
2018-11-11T03:07:49.683Z,22.6
2018-11-11T03:08:38.712Z,22.6
2018-11-11T03:09:30.556Z,22.6
2018-11-11T03:10:20.384Z,22.6
2018-11-11T03:11:10.022Z,22.6
2018-11-11T03:12:00.471Z,22.6
2018-11-11T03:12:50.040Z,22.6
2018-11-11T03:13:40.095Z,22.6
2018-11-11T03:14:30.580Z,22.6
2018-11-11T03:15:20.492Z,22.6
2018-11-11T03:16:08.928Z,22.6
2018-11-11T03:17:00.318Z,22.6
2018-11-11T03:17:50.080Z,22.6
2018-11-11T03:18:40.057Z,22.6
2018-11-11T03:19:30.350Z,22.6
2018-11-11T03:20:20.991Z,22.6
2018-11-11T03:21:10.303Z,22.6
2018-11-11T03:22:00.683Z,22.6
2018-11-11T03:22:49.941Z,22.6
2018-11-11T03:23:40.785Z,22.6
2018-11-11T03:24:31.130Z,22.6
2018-11-11T03:25:20.433Z,22.6
2018-11-11T03:26:10.404Z,22.6
2018-11-11T03:27:00.988Z,22.6
2018-11-11T03:27:50.806Z,22.6
2018-11-11T03:28:40.867Z,22.6
2018-11-11T03:29:31.245Z,22.6
2018-11-11T03:30:21.006Z,22.6
2018-11-11T03:31:11.210Z,22.6
2018-11-11T03:32:01.730Z,22.7
2018-11-11T03:32:51.953Z,22.6
2018-11-11T03:33:41.072Z,22.6
2018-11-11T03:34:32.124Z,22.6
2018-11-11T03:35:20.496Z,22.7
2018-11-11T03:36:11.297Z,22.6
2018-11-11T03:37:02.144Z,22.6
2018-11-11T03:37:52.087Z,22.6
2018-11-11T03:38:40.611Z,22.6
2018-11-11T03:39:31.630Z,22.7
2018-11-11T03:40:20.964Z,22.7
2018-11-11T03:41:11.189Z,22.7
2018-11-11T03:42:01.459Z,22.7
2018-11-11T03:42:52.145Z,22.7
2018-11-11T03:43:41.924Z,22.7
2018-11-11T03:44:31.227Z,22.7
2018-11-11T03:45:22.053Z,22.7
2018-11-11T03:46:12.119Z,22.7
2018-11-11T03:47:02.461Z,22.7
2018-11-11T03:47:52.821Z,22.7
2018-11-11T03:48:42.041Z,22.7
2018-11-11T03:49:32.572Z,22.7
2018-11-11T03:50:22.563Z,22.7
2018-11-11T03:51:12.723Z,22.7
2018-11-11T03:52:03.026Z,22.7
2018-11-11T03:52:53.137Z,22.7
2018-11-11T03:53:42.089Z,22.7
2018-11-11T03:54:33.208Z,22.7
2018-11-11T03:55:23.550Z,22.7
2018-11-11T03:56:12.816Z,22.7
2018-11-11T03:57:03.666Z,22.7
2018-11-11T03:57:53.721Z,22.7
2018-11-11T03:58:44.128Z,22.7
2018-11-11T03:59:32.816Z,22.7
2018-11-11T04:00:23.584Z,22.7
2018-11-11T04:01:12.921Z,22.7
2018-11-11T04:02:02.967Z,22.7
2018-11-11T04:02:53.602Z,22.7
2018-11-11T04:03:43.623Z,22.7
2018-11-11T04:04:32.838Z,22.7
2018-11-11T04:05:22.983Z,22.7
2018-11-11T04:06:14.271Z,22.7
2018-11-11T04:07:03.995Z,22.7
2018-11-11T04:07:54.457Z,22.7
2018-11-11T04:08:43.235Z,22.7
2018-11-11T04:09:34.355Z,22.7
2018-11-11T04:10:25.095Z,22.7
2018-11-11T04:11:14.152Z,22.7
2018-11-11T04:12:03.685Z,22.7
2018-11-11T04:12:54.496Z,22.7
2018-11-11T04:13:44.585Z,22.7
2018-11-11T04:14:33.488Z,22.7
2018-11-11T04:15:24.682Z,22.8
2018-11-11T04:16:14.207Z,22.8
2018-11-11T04:17:05.206Z,22.7
2018-11-11T04:17:55.157Z,22.8
2018-11-11T04:18:45.007Z,22.7
2018-11-11T04:19:35.204Z,22.7
2018-11-11T04:20:25.418Z,22.8
2018-11-11T04:21:14.809Z,22.7
2018-11-11T04:22:05.171Z,22.7
2018-11-11T04:22:55.051Z,22.8
2018-11-11T04:23:45.322Z,22.7
2018-11-11T04:24:34.815Z,22.8
2018-11-11T04:25:25.594Z,22.7
2018-11-11T04:26:15.027Z,22.8
2018-11-11T04:27:06.058Z,22.7
2018-11-11T04:27:55.647Z,22.8
2018-11-11T04:28:45.766Z,22.8
2018-11-11T04:29:35.413Z,22.7
2018-11-11T04:30:25.321Z,22.8
2018-11-11T04:31:15.849Z,22.8
2018-11-11T04:32:06.194Z,22.8
2018-11-11T04:32:56.008Z,22.8
2018-11-11T04:33:46.025Z,22.8
2018-11-11T04:34:36.091Z,22.8
2018-11-11T04:35:26.679Z,22.8
2018-11-11T04:36:16.239Z,22.8
2018-11-11T04:54:19.306Z,22.8
2018-11-11T04:55:09.298Z,22.8
2018-11-11T04:55:59.562Z,22.8
2018-11-11T04:56:49.614Z,22.8
2018-11-11T04:57:40.000Z,22.8
2018-11-11T04:58:29.771Z,22.8
2018-11-11T04:59:19.749Z,22.8
2018-11-11T05:00:09.912Z,22.8
2018-11-11T05:00:59.433Z,22.8
2018-11-11T05:01:50.021Z,22.8
2018-11-11T05:02:39.164Z,22.8
2018-11-11T05:03:29.298Z,22.8
2018-11-11T05:04:20.205Z,22.8
2018-11-11T05:05:10.658Z,22.8
2018-11-11T05:05:59.686Z,22.8
2018-11-11T05:06:50.584Z,22.8
2018-11-11T05:07:40.385Z,22.8
2018-11-11T05:08:30.372Z,22.8
2018-11-11T05:09:20.197Z,22.8
2018-11-11T05:10:10.397Z,22.8
2018-11-11T05:11:00.085Z,22.8
2018-11-11T05:11:50.113Z,22.8
2018-11-11T05:12:39.965Z,22.8
2018-11-11T05:13:29.355Z,22.8
2018-11-11T05:14:19.815Z,22.8
2018-11-11T05:15:09.950Z,22.8
2018-11-11T05:16:00.209Z,22.8
2018-11-11T05:16:50.475Z,22.8
2018-11-11T05:17:40.789Z,22.8
2018-11-11T05:18:30.755Z,22.8
2018-11-11T05:19:20.670Z,22.7
2018-11-11T05:20:11.134Z,22.7
2018-11-11T05:21:01.025Z,22.6
2018-11-11T05:21:51.377Z,22.6
2018-11-11T05:22:41.483Z,22.6
2018-11-11T05:23:30.837Z,22.6
2018-11-11T05:24:21.015Z,22.6
2018-11-11T05:25:10.545Z,22.5
2018-11-11T05:26:01.406Z,22.5
2018-11-11T05:26:51.514Z,22.4
2018-11-11T05:27:41.236Z,22.4
2018-11-11T05:28:31.292Z,22.4
2018-11-11T05:29:21.160Z,22.4
2018-11-11T05:30:11.394Z,22.4
2018-11-11T05:31:01.734Z,22.4
2018-11-11T05:31:51.656Z,22.4
2018-11-11T05:32:41.324Z,22.4
2018-11-11T05:33:31.164Z,22.4
2018-11-11T05:34:22.009Z,22.4
2018-11-11T05:35:11.595Z,22.3
2018-11-11T05:36:01.928Z,22.3
2018-11-11T05:36:51.908Z,22.3
2018-11-11T05:37:41.959Z,22.3
2018-11-11T05:38:31.443Z,22.3
2018-11-11T05:39:20.524Z,22.3
2018-11-11T05:40:11.562Z,22.3
2018-11-11T05:41:02.116Z,22.3
2018-11-11T05:41:52.065Z,22.3
2018-11-11T05:42:42.318Z,22.3
2018-11-11T05:43:32.666Z,22.3
2018-11-11T05:44:22.726Z,22.3
2018-11-11T05:45:12.791Z,22.3
2018-11-11T05:46:02.593Z,22.2
2018-11-11T05:46:52.148Z,22.2
2018-11-11T05:47:42.680Z,22.2
2018-11-11T05:48:32.438Z,22.2
2018-11-11T05:49:22.044Z,22.2
2018-11-11T05:50:12.187Z,22.2
2018-11-11T05:51:03.728Z,22.2
2018-11-11T05:51:52.572Z,22.2
2018-11-11T05:52:43.920Z,22.2
2018-11-11T05:53:33.165Z,22.1
2018-11-11T05:54:22.089Z,22.1
2018-11-11T05:55:13.503Z,22.1
2018-11-11T05:56:03.865Z,22.1
2018-11-11T05:56:52.840Z,22.2
2018-11-11T05:57:43.189Z,22.1
2018-11-11T05:58:34.089Z,22.1
2018-11-11T05:59:22.530Z,22.1
2018-11-11T06:00:13.562Z,22.1
2018-11-11T06:01:02.917Z,22.1
2018-11-11T06:01:53.177Z,22.1
2018-11-11T06:02:43.140Z,22.1
2018-11-11T06:03:33.047Z,22.1
2018-11-11T06:04:23.657Z,22.1
2018-11-11T06:05:13.159Z,22.1
2018-11-11T06:06:04.037Z,22.1
2018-11-11T06:06:52.727Z,22.1
2018-11-11T06:07:43.509Z,22.1
2018-11-11T06:08:34.629Z,22.1
2018-11-11T06:09:24.527Z,22.1
2018-11-11T06:10:14.159Z,22.1
2018-11-11T06:11:04.333Z,22.1
2018-11-11T06:11:55.030Z,22.1
2018-11-11T06:12:44.178Z,22.1
2018-11-11T06:13:34.012Z,22.1
2018-11-11T06:14:24.851Z,22.1
2018-11-11T06:15:14.820Z,22
2018-11-11T06:16:03.539Z,22
2018-11-11T06:16:55.166Z,21.9
2018-11-11T06:17:45.112Z,21.8
2018-11-11T06:18:35.707Z,21.8
2018-11-11T06:19:24.734Z,21.7
2018-11-11T06:20:15.092Z,21.6
2018-11-11T06:21:05.073Z,21.6
2018-11-11T06:21:56.036Z,21.6
2018-11-11T06:22:45.031Z,21.5
2018-11-11T06:23:35.042Z,21.4
2018-11-11T06:24:24.473Z,21.4
2018-11-11T06:25:15.440Z,21.4
2018-11-11T06:26:06.035Z,21.4
2018-11-11T06:26:55.304Z,21.3
2018-11-11T06:27:45.251Z,21.3
2018-11-11T06:28:35.091Z,21.3
2018-11-11T06:29:25.453Z,21.3
2018-11-11T06:30:15.500Z,21.3
2018-11-11T06:31:05.409Z,21.3
2018-11-11T06:31:56.417Z,21.3
2018-11-11T06:32:45.383Z,21.2
2018-11-11T06:33:36.010Z,21.2
2018-11-11T06:34:25.911Z,21.2
2018-11-11T06:35:16.151Z,21.2
2018-11-11T06:36:05.431Z,21.2
2018-11-11T06:36:55.237Z,21.2
2018-11-11T06:37:45.242Z,21.2
2018-11-11T06:44:26.069Z,21.1
2018-11-11T06:46:57.137Z,21.1
2018-11-11T06:47:45.974Z,21.1
2018-11-11T06:48:36.494Z,21.1
2018-11-11T06:49:25.508Z,21.1
2018-11-11T06:50:17.705Z,21.1
2018-11-11T06:51:07.297Z,21.1
2018-11-11T06:51:56.799Z,21.1
2018-11-11T06:52:47.400Z,21.1
2018-11-11T06:53:36.962Z,21.1
2018-11-11T06:54:27.013Z,21.1
2018-11-11T06:55:16.785Z,21.1
2018-11-11T06:56:07.017Z,21
2018-11-11T06:56:56.536Z,21
2018-11-11T06:57:46.995Z,22.2
2018-11-11T06:58:37.427Z,26.3
2018-11-11T06:59:26.704Z,25.9
2018-11-11T07:00:16.779Z,29.4
2018-11-11T07:01:07.720Z,31.3
2018-11-11T07:01:57.276Z,31.6
2018-11-11T07:02:47.791Z,30.3
2018-11-11T07:03:36.968Z,28.3
2018-11-11T07:04:28.211Z,27.1
2018-11-11T07:05:17.426Z,26.4
2018-11-11T07:06:07.472Z,25.9
2018-11-11T07:06:58.845Z,25.6
2018-11-11T07:07:49.147Z,25.4
2018-11-11T07:08:39.303Z,25.2
2018-11-11T07:09:28.896Z,25.1
2018-11-11T07:10:19.230Z,24.9
2018-11-11T07:11:08.618Z,24.8
2018-11-11T07:11:58.535Z,24.7
2018-11-11T07:12:49.825Z,24.6
2018-11-11T07:13:38.578Z,24.4
2018-11-11T07:14:28.966Z,24.4
2018-11-11T07:15:18.236Z,24.6
2018-11-11T07:16:59.293Z,28.4
2018-11-11T07:17:48.697Z,31.6
2018-11-11T07:18:39.203Z,33.2
2018-11-11T07:19:28.042Z,33.5
2018-11-11T07:20:19.220Z,32.9
2018-11-11T07:21:09.595Z,32.2
2018-11-11T07:21:59.968Z,31.9
2018-11-11T07:22:50.487Z,31.9
2018-11-11T07:23:39.181Z,32.2
2018-11-11T07:24:29.843Z,32.6
2018-11-11T07:25:19.700Z,32.8
2018-11-11T07:26:09.079Z,32.8
2018-11-11T07:26:59.743Z,32.7
2018-11-11T07:27:50.627Z,32.7
2018-11-11T07:28:39.564Z,32.8
2018-11-11T07:29:30.202Z,32.8
2018-11-11T07:30:19.855Z,33
2018-11-11T07:31:10.107Z,33.2
2018-11-11T07:31:59.580Z,33.3
2018-11-11T07:32:49.963Z,33.4
2018-11-11T07:33:40.610Z,33.4
2018-11-11T07:34:30.097Z,33.6
2018-11-11T07:35:19.829Z,33.7
2018-11-11T07:36:11.674Z,33.8
2018-11-11T07:37:00.737Z,33.9
2018-11-11T07:37:51.370Z,34.1
2018-11-11T07:38:40.814Z,34.3
2018-11-11T07:39:30.129Z,34.4
2018-11-11T07:40:20.125Z,34.6
2018-11-11T07:41:10.566Z,34.8
2018-11-11T07:42:01.637Z,35
2018-11-11T07:42:50.605Z,35.3
2018-11-11T07:43:41.281Z,35.4
2018-11-11T07:44:31.159Z,35.6
2018-11-11T07:45:20.854Z,35.8
2018-11-11T07:46:11.091Z,35.9
2018-11-11T07:47:01.354Z,36.1
2018-11-11T07:47:52.551Z,36.3
2018-11-11T07:48:41.214Z,36.5
2018-11-11T07:49:31.081Z,36.7
2018-11-11T07:50:21.963Z,36.9
2018-11-11T07:51:11.190Z,37.1
2018-11-11T07:52:02.104Z,37.3
2018-11-11T07:52:51.095Z,37.5
2018-11-11T07:53:41.413Z,37.7
2018-11-11T07:54:32.015Z,37.8
2018-11-11T07:55:22.066Z,38
2018-11-11T07:56:12.191Z,38.2
2018-11-11T07:57:01.097Z,38.4
2018-11-11T07:57:51.961Z,38.6
2018-11-11T07:58:41.803Z,38.8
2018-11-11T07:59:31.853Z,38.9
2018-11-11T08:00:21.900Z,39.1
2018-11-11T08:01:11.582Z,39.2
2018-11-11T08:02:02.106Z,39.4
2018-11-11T08:02:51.981Z,39.5
2018-11-11T08:03:41.881Z,39.7
2018-11-11T08:04:32.672Z,39.9
2018-11-11T08:05:21.487Z,40
2018-11-11T08:06:12.562Z,40.2
2018-11-11T08:07:02.670Z,40.3
2018-11-11T08:07:52.929Z,40.6
2018-11-11T08:08:42.655Z,40.7
2018-11-11T08:09:32.116Z,40.9
2018-11-11T08:10:23.148Z,41.1
2018-11-11T08:11:13.442Z,41.2
2018-11-11T08:12:02.814Z,41.4
2018-11-11T08:12:53.277Z,41.5
2018-11-11T08:13:43.077Z,41.7
2018-11-11T08:14:33.229Z,41.9
2018-11-11T08:15:22.494Z,42
2018-11-11T08:16:13.272Z,42.2
2018-11-11T08:17:03.222Z,42.3
2018-11-11T08:17:53.941Z,42.5
2018-11-11T08:18:42.657Z,42.6
2018-11-11T08:19:33.069Z,42.8
2018-11-11T08:20:24.095Z,43
2018-11-11T08:21:13.707Z,43.2
2018-11-11T08:22:03.982Z,43.3
2018-11-11T08:22:54.026Z,43.4
2018-11-11T08:23:43.787Z,43.6
2018-11-11T08:24:33.266Z,43.8
2018-11-11T08:25:24.388Z,43.9
2018-11-11T08:26:12.984Z,44.1
2018-11-11T08:27:02.856Z,44.3
2018-11-11T08:27:53.896Z,44.4
2018-11-11T08:28:43.589Z,44.6
2018-11-11T08:29:33.708Z,44.8
2018-11-11T08:30:23.849Z,44.9
2018-11-11T08:31:14.300Z,45.1
2018-11-11T08:32:05.199Z,45.3
2018-11-11T08:32:54.701Z,45.4
2018-11-11T08:33:44.016Z,45.6
2018-11-11T08:34:34.041Z,45.8
2018-11-11T08:35:24.311Z,45.9
2018-11-11T08:36:14.692Z,46.1
2018-11-11T08:37:05.003Z,46.3
2018-11-11T08:37:54.370Z,46.4
2018-11-11T08:38:45.438Z,46.6
2018-11-11T08:39:35.163Z,46.7
2018-11-11T08:40:25.257Z,46.9
2018-11-11T08:41:14.373Z,47
2018-11-11T08:42:05.107Z,47.1
2018-11-11T08:42:55.209Z,47.3
2018-11-11T08:43:45.488Z,47.5
2018-11-11T08:44:35.281Z,47.6
2018-11-11T08:45:25.576Z,47.8
2018-11-11T08:46:14.808Z,47.9
2018-11-11T08:47:05.068Z,48.1
2018-11-11T08:47:56.081Z,48.2
2018-11-11T08:48:45.594Z,48.4
2018-11-11T08:49:36.670Z,48.5
2018-11-11T08:50:25.117Z,48.6
2018-11-11T08:51:15.469Z,48.8
2018-11-11T08:52:06.382Z,48.9
2018-11-11T09:08:47.156Z,51.4
2018-11-11T09:09:36.024Z,51.6
2018-11-11T09:10:27.327Z,51.7
2018-11-11T09:11:17.793Z,51.9
2018-11-11T09:12:56.685Z,52.1
2018-11-11T09:13:47.258Z,52.2
2018-11-11T09:14:37.127Z,52.3
2018-11-11T09:16:17.458Z,52.5
2018-11-11T09:17:07.665Z,52.6
2018-11-11T09:17:57.304Z,52.8
2018-11-11T09:18:47.593Z,52.8
2018-11-11T09:19:37.131Z,52.9
2018-11-11T09:20:28.056Z,53.1
2018-11-11T09:21:18.528Z,53.1
2018-11-11T09:22:07.365Z,53.3
2018-11-11T09:22:57.372Z,53.4
2018-11-11T09:23:47.648Z,53.4
2018-11-11T09:24:37.346Z,53.6
2018-11-11T09:25:27.915Z,53.7
2018-11-11T09:26:17.488Z,53.8
2018-11-11T09:27:08.515Z,53.9
2018-11-11T09:27:58.042Z,54
2018-11-11T09:28:48.340Z,54.1
2018-11-11T09:29:39.760Z,54.1
2018-11-11T09:30:29.942Z,54.2
2018-11-11T09:31:18.797Z,54.3
2018-11-11T09:32:07.769Z,54.4
2018-11-11T09:32:58.052Z,54.5
2018-11-11T09:33:47.905Z,54.6
2018-11-11T09:34:38.770Z,54.6
2018-11-11T09:35:30.503Z,54.7
2018-11-11T09:36:18.440Z,54.8
2018-11-11T09:37:08.685Z,54.8
2018-11-11T09:37:58.805Z,54.9
2018-11-11T09:38:49.315Z,55
2018-11-11T09:39:39.213Z,55.1
2018-11-11T09:40:29.207Z,55.1
2018-11-11T09:41:19.319Z,55.3
2018-11-11T09:42:09.619Z,55.3
2018-11-11T09:42:58.691Z,55.4
2018-11-11T09:43:48.959Z,55.4
2018-11-11T09:44:38.795Z,55.6
2018-11-11T09:45:29.619Z,55.6
2018-11-11T09:46:20.209Z,55.7
2018-11-11T09:47:09.660Z,55.8
2018-11-11T09:48:00.743Z,55.8
2018-11-11T09:48:49.567Z,55.9
2018-11-11T09:49:39.647Z,55.9
2018-11-11T09:50:30.216Z,56.1
2018-11-11T09:51:19.271Z,56.1
2018-11-11T09:52:09.020Z,56.1
2018-11-11T09:52:59.327Z,56.3
2018-11-11T09:53:49.441Z,56.3
2018-11-11T09:54:40.028Z,56.4
2018-11-11T09:55:29.473Z,56.4
2018-11-11T09:56:20.665Z,56.4
2018-11-11T09:57:10.407Z,56.6
2018-11-11T09:57:59.987Z,56.6
2018-11-11T09:58:51.463Z,56.3
2018-11-11T09:59:41.825Z,56.1
2018-11-11T10:00:30.972Z,56.1
2018-11-11T10:01:19.930Z,56.2
2018-11-11T10:02:09.578Z,56.3
2018-11-11T10:03:00.912Z,56.3
2018-11-11T10:03:50.093Z,56.4
2018-11-11T10:04:40.426Z,56.5
2018-11-11T10:05:31.255Z,56.6
2018-11-11T10:06:21.063Z,56.6
2018-11-11T10:07:11.336Z,56.7
2018-11-11T10:08:00.307Z,56.8
2018-11-11T10:08:50.011Z,56.9
2018-11-11T10:09:40.449Z,56.9
2018-11-11T10:10:31.074Z,57.1
2018-11-11T10:11:21.232Z,57.1
2018-11-11T10:12:10.653Z,57.2
2018-11-11T10:13:00.420Z,57.3
2018-11-11T10:13:50.777Z,57.3
2018-11-11T10:14:40.704Z,57.4
2018-11-11T10:15:31.094Z,57.4
2018-11-11T10:16:21.566Z,57.6
2018-11-11T10:17:11.398Z,57.6
2018-11-11T10:18:01.956Z,57.7
2018-11-11T10:19:41.464Z,57.9
2018-11-11T10:20:32.491Z,57.9
2018-11-11T10:21:22.215Z,58
2018-11-11T10:22:12.004Z,58.1
2018-11-11T10:23:01.553Z,58.2
2018-11-11T10:23:51.607Z,58.3
2018-11-11T10:24:41.521Z,58.3
2018-11-11T10:25:31.758Z,58.4
2018-11-11T10:26:22.797Z,58.4
2018-11-11T10:27:12.832Z,58.4
2018-11-11T10:28:52.428Z,58.6
2018-11-11T10:29:42.131Z,58.7
2018-11-11T10:30:32.075Z,58.8
2018-11-11T10:31:21.800Z,58.8
2018-11-11T10:32:12.151Z,58.9
2018-11-11T10:33:02.719Z,58.9
2018-11-11T10:33:52.577Z,59.1
2018-11-11T10:34:42.525Z,59.1
2018-11-11T10:35:33.433Z,59.1
2018-11-11T10:36:22.883Z,59.2
2018-11-11T10:37:12.243Z,59.3
2018-11-11T10:38:03.261Z,59.3
2018-11-11T10:38:52.533Z,59.4
2018-11-11T10:39:43.762Z,59.4
2018-11-11T10:40:33.887Z,59.5
2018-11-11T10:41:22.442Z,59.5
2018-11-11T10:42:12.742Z,59.6
2018-11-11T10:43:03.235Z,59.7
2018-11-11T10:43:53.309Z,59.8
2018-11-11T10:44:43.324Z,59.8
2018-11-11T10:45:33.295Z,59.9
2018-11-11T10:46:23.512Z,60
2018-11-11T10:47:14.217Z,60
2018-11-11T10:48:04.358Z,59.7
2018-11-11T10:48:54.114Z,59.6
2018-11-11T10:49:44.198Z,59.4
2018-11-11T10:50:33.188Z,59.5
2018-11-11T10:51:24.376Z,59.6
2018-11-11T10:52:14.164Z,59.7
2018-11-11T10:53:04.017Z,59.7
2018-11-11T10:53:53.919Z,59.8
2018-11-11T10:54:45.148Z,59.9
2018-11-11T10:55:34.119Z,59.9
2018-11-11T10:56:23.789Z,59.9
2018-11-11T10:57:14.164Z,60
2018-11-11T10:58:04.486Z,60.1
2018-11-11T10:58:54.549Z,60.1
2018-11-11T10:59:44.424Z,60.2
2018-11-11T11:00:34.124Z,60.3
2018-11-11T11:01:24.083Z,60.3
2018-11-11T11:02:15.382Z,60.4
2018-11-11T11:03:04.654Z,60.4
2018-11-11T11:03:54.154Z,60.5
2018-11-11T11:04:44.479Z,60.5
2018-11-11T11:05:35.121Z,60.6
2018-11-11T11:06:25.411Z,60.6
2018-11-11T11:07:16.031Z,60.7
2018-11-11T11:08:05.214Z,60.6
2018-11-11T11:08:54.991Z,60.5
2018-11-11T11:09:44.793Z,60.6
2018-11-11T11:10:36.056Z,60.6
2018-11-11T11:11:25.466Z,60.6
2018-11-11T11:12:15.781Z,60.7
2018-11-11T11:13:06.361Z,60.8
2018-11-11T11:13:56.316Z,60.8
2018-11-11T11:14:46.261Z,60.8
2018-11-11T11:15:35.366Z,60.8
2018-11-11T11:16:25.650Z,60.9
2018-11-11T11:17:15.963Z,60.9
2018-11-11T11:18:05.781Z,61
2018-11-11T11:18:55.142Z,61.1
2018-11-11T11:19:46.665Z,61.1
2018-11-11T11:20:35.838Z,61.1
2018-11-11T11:21:25.937Z,61.1
2018-11-11T11:22:17.065Z,61.2
2018-11-11T11:23:07.930Z,61.2
2018-11-11T11:23:56.215Z,61.2
2018-11-11T11:24:45.860Z,61.3
2018-11-11T11:25:36.742Z,61.3
2018-11-11T11:26:26.565Z,61.3
2018-11-11T11:27:17.626Z,61.3
2018-11-11T11:28:06.752Z,61.3
2018-11-11T11:28:57.525Z,61.3
2018-11-11T11:29:46.500Z,61.4
2018-11-11T11:30:37.100Z,61.4
2018-11-11T11:31:27.842Z,61.4
2018-11-11T11:32:17.869Z,61.4
2018-11-11T11:33:06.972Z,61.4
2018-11-11T11:33:57.721Z,61.5
2018-11-11T11:34:47.154Z,61.5
2018-11-11T11:35:38.633Z,61.5
2018-11-11T11:36:27.597Z,61.6
2018-11-11T11:37:18.229Z,61.6
2018-11-11T11:38:07.977Z,61.6
2018-11-11T11:38:57.987Z,61.7
2018-11-11T11:39:47.632Z,61.7
2018-11-11T11:40:37.682Z,61.7
2018-11-11T11:41:28.326Z,61.8
2018-11-11T11:42:17.978Z,61.8
2018-11-11T11:43:07.456Z,61.8
2018-11-11T11:43:57.785Z,61.8
2018-11-11T11:44:47.561Z,61.9
2018-11-11T11:45:38.217Z,61.9
2018-11-11T11:46:28.056Z,61.9
2018-11-11T11:47:18.929Z,62
2018-11-11T11:48:08.684Z,62
2018-11-11T11:48:58.110Z,62
2018-11-11T11:49:47.605Z,62.1
2018-11-11T11:50:38.401Z,62.1
2018-11-11T11:51:28.436Z,62.1
2018-11-11T11:52:20.178Z,62.1
2018-11-11T11:53:09.765Z,62.2
2018-11-11T11:53:58.240Z,62.2
2018-11-11T11:54:48.906Z,62.3
2018-11-11T11:55:39.186Z,62.3
2018-11-11T11:56:29.001Z,62.2
2018-11-11T11:57:19.330Z,62.3
2018-11-11T11:58:08.431Z,62.3
2018-11-11T11:58:58.423Z,62.3
2018-11-11T11:59:49.257Z,62.3
2018-11-11T12:00:39.224Z,62.3
2018-11-11T12:01:29.450Z,62.4
2018-11-11T12:02:19.324Z,62.4
2018-11-11T12:03:08.633Z,62.4
2018-11-11T12:03:59.098Z,62.4
2018-11-11T12:04:49.232Z,62.4
2018-11-11T12:05:39.388Z,62.4
2018-11-11T12:06:29.143Z,62.4
2018-11-11T12:07:20.082Z,62.4
2018-11-11T12:08:09.063Z,62.4
2018-11-11T12:09:00.378Z,62.4